Time;durP1;ratioP1;P1;durP2;ratioP2;P2;SDS_P1;SDS_P2;PMS_P1;PMS_P2;Temp;Humidity;BMP_temperature;BMP_pressure;BME280_temperature;BME280_humidity;BME280_pressure;Samples;Min_cycle;Max_cycle;Signal;HPM_P1;HPM_P2
2021/05/06 00:11:40;;;;;;;26.40;4.57;;;;;;;-145.71;100.00;60690.53;5013728;28;20080;-77
2021/05/06 00:33:25;;;;;;;10.95;3.30;;;;;;;-145.71;100.00;60690.53;5007328;28;20122;-77
2021/05/06 00:35:51;;;;;;;17.23;4.00;;;;;;;-145.71;100.00;60690.53;4993233;28;20129;-77
2021/05/06 00:38:23;;;;;;;15.82;3.15;;;;;;;-145.71;100.00;60690.53;4977199;28;20053;-77
2021/05/06 00:44:01;;;;;;;13.52;3.05;;;;;;;-145.71;100.00;60690.53;5013295;28;20120;-78
2021/05/06 00:46:49;;;;;;;12.50;2.97;;;;;;;-145.71;100.00;60690.53;5007737;28;20081;-78
2021/05/06 01:04:56;;;;;;;15.70;3.00;;;;;;;-145.71;100.00;60690.53;4992909;28;20049;-77
2021/05/06 01:12:21;;;;;;;16.38;3.35;;;;;;;-145.71;100.00;60690.53;5016287;28;20393;-78
2021/05/06 01:14:46;;;;;;;13.52;2.88;;;;;;;-145.71;100.00;60690.53;5001029;28;20041;-78
2021/05/06 01:17:12;;;;;;;22.83;3.67;;;;;;;-145.71;100.00;60690.53;4975966;28;20036;-78
2021/05/06 01:19:37;;;;;;;10.88;3.10;;;;;;;-145.71;100.00;60690.53;5005520;28;20603;-78
2021/05/06 01:22:04;;;;;;;23.17;4.22;;;;;;;-145.71;100.00;60690.53;4994722;28;20026;-77
2021/05/06 01:24:29;;;;;;;14.93;3.17;;;;;;;-145.71;100.00;60690.53;5017675;28;20077;-78
2021/05/06 01:28:01;;;;;;;13.77;2.92;;;;;;;-145.71;100.00;60690.53;5012118;28;20531;-78
2021/05/06 01:30:06;;;;;;;22.30;3.22;;;;;;;-145.71;100.00;60690.53;5006887;28;20049;-78
2021/05/06 01:32:38;;;;;;;11.63;3.22;;;;;;;-145.71;100.00;60690.53;4996121;28;20034;-78
2021/05/06 01:35:07;;;;;;;;;;;;;;;-145.71;100.00;60690.53;4992503;28;20479;-78
2021/05/06 01:38:06;;;;;;;23.17;4.38;;;;;;;-145.71;100.00;60690.53;4978432;28;19921;-78
2021/05/06 01:58:39;;;;;;;15.05;3.30;;;;;;;-145.71;100.00;60690.53;4994636;28;20434;-78
2021/05/06 02:01:06;;;;;;;19.02;4.65;;;;;;;-145.71;100.00;60690.53;4993007;28;20113;-78
2021/05/06 02:03:35;;;;;;;15.35;4.40;;;;;;;-145.71;100.00;60690.53;4994695;28;20045;-79
2021/05/06 02:06:01;;;;;;;18.05;4.97;;;;;;;-145.71;100.00;60690.53;4977555;28;20030;-78
2021/05/06 02:08:28;;;;;;;12.18;3.30;;;;;;;-145.71;100.00;60690.53;4993904;28;20037;-78
2021/05/06 02:10:57;;;;;;;13.30;2.95;;;;;;;-145.71;100.00;60690.53;4992996;28;20034;-78
2021/05/06 02:13:23;;;;;;;18.98;3.67;;;;;;;-145.71;100.00;60690.53;4974670;28;20053;-78
2021/05/06 02:16:00;;;;;;;24.33;3.35;;;;;;;-145.71;100.00;60690.53;4992486;28;20073;-78
2021/05/06 02:18:28;;;;;;;14.27;2.88;;;;;;;-145.71;100.00;60690.53;5003903;28;20069;-78
2021/05/06 02:20:53;;;;;;;19.05;3.20;;;;;;;-145.71;100.00;60690.53;5013931;28;20052;-79
2021/05/06 02:23:19;;;;;;;17.42;3.58;;;;;;;-145.71;100.00;60690.53;5012090;28;20486;-79
2021/05/06 02:25:46;;;;;;;21.45;5.18;;;;;;;-145.71;100.00;60690.53;5012845;28;20040;-78
2021/05/06 02:28:12;;;;;;;22.10;5.25;;;;;;;-145.71;100.00;60690.53;5004836;28;20034;-78
2021/05/06 02:30:38;;;;;;;17.77;3.30;;;;;;;-145.71;100.00;60690.53;4993308;28;20527;-78
2021/05/06 02:33:06;;;;;;;22.25;5.45;;;;;;;-145.71;100.00;60690.53;4977769;28;20841;-78
2021/05/06 02:35:32;;;;;;;22.13;4.85;;;;;;;-145.71;100.00;60690.53;4994435;28;20084;-78
2021/05/06 02:37:57;;;;;;;29.98;4.05;;;;;;;-145.71;100.00;60690.53;4993779;28;20490;-77
2021/05/06 02:40:22;;;;;;;23.42;4.80;;;;;;;-145.71;100.00;60690.53;4991280;28;20487;-77
2021/05/06 02:42:48;;;;;;;22.60;3.88;;;;;;;-145.71;100.00;60690.53;4991501;28;20038;-78
2021/05/06 02:45:13;;;;;;;25.30;5.75;;;;;;;-145.71;100.00;60690.53;4975406;28;20038;-78
2021/05/06 02:47:39;;;;;;;26.85;7.40;;;;;;;-145.71;100.00;60690.53;4975541;28;20479;-78
2021/05/06 02:50:09;;;;;;;35.20;6.45;;;;;;;-145.71;100.00;60690.53;4993388;28;20076;-78
2021/05/06 02:52:37;;;;;;;30.08;5.00;;;;;;;-145.71;100.00;60690.53;5011814;28;20044;-78
2021/05/06 02:55:13;;;;;;;26.50;5.45;;;;;;;-145.71;100.00;60690.53;4993071;28;20050;-78
2021/05/06 03:02:51;;;;;;;39.45;5.55;;;;;;;-145.71;100.00;60690.53;5012419;28;20088;-78
2021/05/06 03:05:19;;;;;;;40.25;5.30;;;;;;;-145.71;100.00;60690.53;5012035;28;20026;-78
2021/05/06 03:07:51;;;;;;;30.02;4.68;;;;;;;-145.71;100.00;60690.53;4999965;28;20085;-78
2021/05/06 03:23:24;;;;;;;43.65;6.10;;;;;;;-145.71;100.00;60690.53;4999742;28;20089;-77
2021/05/06 03:25:50;;;;;;;30.63;5.43;;;;;;;-145.71;100.00;60690.53;4997200;28;20490;-78
2021/05/06 03:28:24;;;;;;;38.15;8.82;;;;;;;-145.71;100.00;60690.53;4979823;28;20050;-78
2021/05/06 03:31:04;;;;;;;27.77;4.25;;;;;;;-145.71;100.00;60690.53;4996543;28;20077;-78
2021/05/06 03:42:03;;;;;;;19.58;4.90;;;;;;;-145.71;100.00;60690.53;5014010;28;20065;-79
2021/05/06 04:17:42;;;;;;;28.20;5.75;;;;;;;-145.71;100.00;60690.53;5014089;28;20520;-83
2021/05/06 04:25:45;;;;;;;26.25;5.65;;;;;;;-145.71;100.00;60690.53;5012387;28;20029;-82
2021/05/06 04:39:01;;;;;;;36.90;9.43;;;;;;;-145.71;100.00;60690.53;5012220;28;20049;-82
2021/05/06 04:41:55;;;;;;;69.82;8.77;;;;;;;-145.71;100.00;60690.53;5064693;23;20540;-83
2021/05/06 04:55:26;;;;;;;25.65;5.28;;;;;;;-145.71;100.00;60690.53;5030591;28;20095;-82
2021/05/06 04:58:46;;;;;;;23.83;3.80;;;;;;;-145.71;100.00;60690.53;5011771;28;20072;-83
2021/05/06 05:03:36;;;;;;;19.83;3.60;;;;;;;-145.71;100.00;60690.53;5030587;28;20036;-82
2021/05/06 05:06:03;;;;;;;16.08;3.90;;;;;;;-145.71;100.00;60690.53;5012329;28;20033;-82
2021/05/06 05:08:34;;;;;;;29.23;5.80;;;;;;;-145.71;100.00;60690.53;5011884;28;20052;-83
2021/05/06 05:24:19;;;;;;;28.42;5.38;;;;;;;-145.71;100.00;60690.53;5030279;28;20040;-83
2021/05/06 05:26:44;;;;;;;18.40;4.80;;;;;;;-145.71;100.00;60690.53;5011963;28;20037;-82
2021/05/06 05:29:09;;;;;;;24.17;5.80;;;;;;;-145.71;100.00;60690.53;5011809;28;20070;-82
2021/05/06 05:31:35;;;;;;;28.88;5.70;;;;;;;-145.71;100.00;60690.53;5032013;28;20389;-82
2021/05/06 05:34:14;;;;;;;35.30;7.75;;;;;;;-145.71;100.00;60690.53;5023493;28;20120;-81
2021/05/06 05:36:40;;;;;;;28.42;5.63;;;;;;;-145.71;100.00;60690.53;5016653;28;20044;-82
2021/05/06 05:39:22;;;;;;;30.35;5.22;;;;;;;-145.71;100.00;60690.53;5027517;28;20029;-82
2021/05/06 05:42:06;;;;;;;32.22;5.43;;;;;;;-145.71;100.00;60690.53;5006508;28;649958;-81
2021/05/06 05:45:01;;;;;;;27.80;4.32;;;;;;;-145.71;100.00;60690.53;5029387;28;20033;-82
2021/05/06 05:55:27;;;;;;;32.88;5.68;;;;;;;-145.71;100.00;60690.53;5005363;28;20072;-82
2021/05/06 05:57:57;;;;;;;26.95;5.07;;;;;;;-145.71;100.00;60690.53;5012659;28;20053;-83
2021/05/06 06:00:28;;;;;;;31.20;5.32;;;;;;;-145.71;100.00;60690.53;5023491;28;20038;-83
2021/05/06 06:02:53;;;;;;;29.65;6.57;;;;;;;-145.71;100.00;60690.53;5028921;28;20060;-83
2021/05/06 06:05:23;;;;;;;25.45;5.55;;;;;;;-145.71;100.00;60690.53;5010879;28;20118;-83
2021/05/06 06:07:53;;;;;;;31.27;7.60;;;;;;;-145.71;100.00;60690.53;5001625;28;20038;-83
2021/05/06 06:10:25;;;;;;;27.05;6.50;;;;;;;-145.71;100.00;60690.53;5028258;28;20029;-82
2021/05/06 06:12:52;;;;;;;47.53;7.22;;;;;;;-145.71;100.00;60690.53;5020288;28;20477;-84
2021/05/06 06:15:32;;;;;;;19.02;3.65;;;;;;;-145.71;100.00;60690.53;5019665;28;20040;-83
2021/05/06 06:18:24;;;;;;;14.57;4.35;;;;;;;-145.71;100.00;60690.53;5007807;28;20397;-83
2021/05/06 06:21:00;;;;;;;18.70;4.13;;;;;;;-145.71;100.00;60690.53;5027115;28;20029;-82
2021/05/06 06:23:27;;;;;;;16.80;3.42;;;;;;;-145.71;100.00;60690.53;5027538;28;20116;-82
2021/05/06 06:25:53;;;;;;;15.88;4.30;;;;;;;-145.71;100.00;60690.53;5028591;28;20041;-82
2021/05/06 06:28:20;;;;;;;12.35;4.45;;;;;;;-145.71;100.00;60690.53;5025042;28;20040;-83
2021/05/06 06:33:15;;;;;;;22.55;3.75;;;;;;;-145.71;100.00;60690.53;5081795;23;20074;-83
2021/05/06 06:40:45;;;;;;;26.95;4.35;;;;;;;-145.71;100.00;60690.53;5030761;22;20052;-84
2021/05/06 06:43:11;;;;;;;16.58;3.70;;;;;;;-145.71;100.00;60690.53;5017314;28;20053;-83
2021/05/06 06:45:38;;;;;;;29.30;6.00;;;;;;;-145.71;100.00;60690.53;5009244;28;20025;-83
2021/05/06 06:50:34;;;;;;;32.45;4.88;;;;;;;-145.71;100.00;60690.53;3978760;23;20108;-83
2021/05/06 06:53:50;;;;;;;20.85;4.60;;;;;;;-145.71;100.00;60690.53;5014749;28;20052;-83
2021/05/06 06:56:16;;;;;;;19.77;4.88;;;;;;;-145.71;100.00;60690.53;5012396;28;20120;-82
2021/05/06 06:58:41;;;;;;;36.40;7.43;;;;;;;-145.71;100.00;60690.53;5013747;28;20141;-82
2021/05/06 07:01:09;;;;;;;17.15;3.58;;;;;;;-145.71;100.00;60690.53;5029499;28;20086;-82
2021/05/06 07:03:35;;;;;;;17.13;3.42;;;;;;;-145.71;100.00;60690.53;5011359;28;20026;-81
2021/05/06 07:06:00;;;;;;;23.02;3.92;;;;;;;-145.71;100.00;60690.53;5012510;28;20615;-82
2021/05/06 07:08:30;;;;;;;13.25;3.45;;;;;;;-145.71;100.00;60690.53;5012290;28;20397;-81
2021/05/06 07:10:58;;;;;;;23.73;6.45;;;;;;;-145.71;100.00;60690.53;5012297;28;20168;-82
2021/05/06 07:13:24;;;;;;;16.33;3.58;;;;;;;-145.71;100.00;60690.53;5023803;28;20045;-82
2021/05/06 07:15:54;;;;;;;21.83;3.65;;;;;;;-145.71;100.00;60690.53;5031070;28;20051;-82
2021/05/06 07:18:20;;;;;;;15.25;3.20;;;;;;;-145.71;100.00;60690.53;5029168;28;20040;-82
2021/05/06 07:20:47;;;;;;;14.57;3.22;;;;;;;-145.71;100.00;60690.53;5020965;28;20112;-81
2021/05/06 07:23:14;;;;;;;18.58;4.07;;;;;;;-145.71;100.00;60690.53;5028683;28;20022;-82
2021/05/06 07:25:40;;;;;;;16.98;3.30;;;;;;;-145.71;100.00;60690.53;5029118;28;20033;-82
2021/05/06 07:28:18;;;;;;;16.77;2.88;;;;;;;-145.71;100.00;60690.53;5011682;28;20034;-82
2021/05/06 07:30:45;;;;;;;14.07;2.53;;;;;;;-145.71;100.00;60690.53;5029967;28;20025;-81
2021/05/06 07:33:12;;;;;;;7.78;2.72;;;;;;;-145.71;100.00;60690.53;5031001;28;20037;-83
2021/05/06 07:35:38;;;;;;;14.63;2.38;;;;;;;-145.71;100.00;60690.53;5011089;28;20026;-81
2021/05/06 07:38:04;;;;;;;15.52;2.65;;;;;;;-145.71;100.00;60690.53;5030905;28;20141;-81
2021/05/06 07:40:30;;;;;;;8.52;2.63;;;;;;;-145.71;100.00;60690.53;5011249;28;20033;-81
2021/05/06 07:43:30;;;;;;;7.45;1.67;;;;;;;-145.71;100.00;60690.53;5010845;28;20030;-81
2021/05/06 07:45:59;;;;;;;8.40;3.35;;;;;;;-145.71;100.00;60690.53;5010853;28;20109;-82
2021/05/06 07:48:25;;;;;;;9.40;1.85;;;;;;;-145.71;100.00;60690.53;4993367;28;20046;-82
2021/05/06 07:50:53;;;;;;;8.90;2.33;;;;;;;-145.71;100.00;60690.53;4993749;28;20466;-82
2021/05/06 07:53:25;;;;;;;9.20;3.13;;;;;;;-145.71;100.00;60690.53;5014945;28;20033;-81
2021/05/06 07:55:51;;;;;;;11.82;3.50;;;;;;;-145.71;100.00;60690.53;5034124;28;20087;-81
2021/05/06 07:58:17;;;;;;;10.60;2.28;;;;;;;-145.71;100.00;60690.53;5018885;28;20038;-82
2021/05/06 08:00:42;;;;;;;14.70;3.45;;;;;;;-145.71;100.00;60690.53;5034511;28;20075;-82
2021/05/06 08:03:08;;;;;;;10.48;2.40;;;;;;;-145.71;100.00;60690.53;5033388;28;20116;-83
2021/05/06 08:05:35;;;;;;;12.88;3.75;;;;;;;-145.71;100.00;60690.53;5015790;28;20033;-82
2021/05/06 08:08:00;;;;;;;10.30;2.17;;;;;;;-145.71;100.00;60690.53;5015672;28;20436;-82
2021/05/06 08:10:26;;;;;;;15.85;2.83;;;;;;;-145.71;100.00;60690.53;5016348;28;20033;-82
2021/05/06 08:12:54;;;;;;;11.85;3.33;;;;;;;-145.71;100.00;60690.53;5035157;28;20037;-82
2021/05/06 08:15:20;;;;;;;13.98;3.88;;;;;;;-145.71;100.00;60690.53;5016490;28;20544;-82
2021/05/06 08:17:46;;;;;;;19.77;3.00;;;;;;;-145.71;100.00;60690.53;5015703;28;20033;-83
2021/05/06 08:20:13;;;;;;;15.77;3.40;;;;;;;-145.71;100.00;60690.53;5015937;28;20499;-82
2021/05/06 08:22:39;;;;;;;15.15;3.70;;;;;;;-145.71;100.00;60690.53;5033909;28;20025;-82
2021/05/06 08:25:07;;;;;;;21.08;4.43;;;;;;;-145.71;100.00;60690.53;5034196;28;20067;-82
2021/05/06 08:27:33;;;;;;;15.30;3.97;;;;;;;-145.71;100.00;60690.53;5033128;28;20483;-82
2021/05/06 08:30:00;;;;;;;16.70;4.82;;;;;;;-145.71;100.00;60690.53;5032467;28;20037;-82
2021/05/06 08:32:25;;;;;;;17.13;5.15;;;;;;;-145.71;100.00;60690.53;5018741;28;20025;-81
2021/05/06 08:34:51;;;;;;;15.15;3.80;;;;;;;-145.71;100.00;60690.53;5034170;28;20479;-82
2021/05/06 08:37:22;;;;;;;26.02;5.53;;;;;;;-145.71;100.00;60690.53;5015552;28;20037;-81
2021/05/06 08:39:48;;;;;;;22.27;3.80;;;;;;;-145.71;100.00;60690.53;5034447;28;20034;-82
2021/05/06 08:42:15;;;;;;;17.67;3.40;;;;;;;-145.71;100.00;60690.53;5032876;28;20041;-81
2021/05/06 08:44:41;;;;;;;18.88;3.50;;;;;;;-145.71;100.00;60690.53;5033868;28;20104;-81
2021/05/06 08:47:12;;;;;;;19.00;4.43;;;;;;;-145.71;100.00;60690.53;5033742;28;20048;-82
2021/05/06 08:49:38;;;;;;;14.90;4.22;;;;;;;-145.71;100.00;60690.53;5034853;28;20396;-82
2021/05/06 08:52:08;;;;;;;19.45;3.58;;;;;;;-145.71;100.00;60690.53;5038988;28;20044;-81
2021/05/06 08:54:34;;;;;;;17.10;3.45;;;;;;;-145.71;100.00;60690.53;5013794;28;20029;-81
2021/05/06 08:56:59;;;;;;;14.02;3.92;;;;;;;-145.71;100.00;60690.53;5031612;28;20499;-82
2021/05/06 08:59:26;;;;;;;14.70;4.00;;;;;;;-145.71;100.00;60690.53;5013575;28;20033;-82
2021/05/06 09:01:59;;;;;;;17.05;3.05;;;;;;;-145.71;100.00;60690.53;5013718;28;20039;-83
2021/05/06 09:04:30;;;;;;;16.00;4.95;;;;;;;-145.71;100.00;60690.53;5010312;28;20040;-83
2021/05/06 09:06:57;;;;;;;21.75;4.43;;;;;;;-145.71;100.00;60690.53;5013786;28;20055;-82
2021/05/06 09:09:31;;;;;;;25.30;5.95;;;;;;;-145.71;100.00;60690.53;5022660;28;20037;-83
2021/05/06 09:12:21;;;;;;;16.30;3.78;;;;;;;-145.71;100.00;60690.53;5031734;28;20448;-83
2021/05/06 09:14:48;;;;;;;16.17;4.03;;;;;;;-145.71;100.00;60690.53;5005950;28;20505;-84
2021/05/06 09:17:32;;;;;;;19.20;5.63;;;;;;;-145.71;100.00;60690.53;5031390;28;20033;-83
2021/05/06 09:20:19;;;;;;;18.17;5.10;;;;;;;-145.71;100.00;60690.53;5031884;28;20103;-83
2021/05/06 09:22:55;;;;;;;16.70;6.03;;;;;;;-145.71;100.00;60690.53;5013543;28;20527;-83
2021/05/06 09:25:37;;;;;;;19.75;6.22;;;;;;;-145.71;100.00;60690.53;5013493;28;20072;-83
2021/05/06 09:28:24;;;;;;;18.13;5.75;;;;;;;-145.71;100.00;60690.53;5013935;28;20397;-83
2021/05/06 09:31:03;;;;;;;16.60;5.10;;;;;;;-145.71;100.00;60690.53;5014427;28;20037;-83
2021/05/06 09:33:40;;;;;;;9.32;3.00;;;;;;;-145.71;100.00;60690.53;5013791;28;20041;-83
2021/05/06 09:36:24;;;;;;;21.20;4.80;;;;;;;-145.71;100.00;60690.53;5031132;28;20026;-82
2021/05/06 09:38:57;;;;;;;16.77;3.13;;;;;;;-145.71;100.00;60690.53;5032286;28;20037;-83
2021/05/06 09:41:34;;;;;;;22.10;4.93;;;;;;;-145.71;100.00;60690.53;5032043;28;20048;-83
2021/05/06 09:44:26;;;;;;;12.00;3.65;;;;;;;-145.71;100.00;60690.53;4994474;28;20049;-83
2021/05/06 09:46:57;;;;;;;14.15;3.45;;;;;;;-145.71;100.00;60690.53;5003410;28;20494;-83
2021/05/06 09:49:26;;;;;;;14.73;2.63;;;;;;;-145.71;100.00;60690.53;5031577;28;20026;-84
2021/05/06 09:52:02;;;;;;;8.48;2.50;;;;;;;-145.71;100.00;60690.53;5013522;28;20512;-83
2021/05/06 09:54:42;;;;;;;8.63;2.35;;;;;;;-145.71;100.00;60690.53;5031336;28;20398;-83
2021/05/06 09:57:07;;;;;;;7.65;2.20;;;;;;;-145.71;100.00;60690.53;5013470;28;20048;-83
2021/05/06 09:59:37;;;;;;;14.68;1.88;;;;;;;-145.71;100.00;60690.53;5013299;28;20033;-82
2021/05/06 10:02:10;;;;;;;12.18;2.78;;;;;;;-145.71;100.00;60690.53;5037020;28;20025;-78
2021/05/06 10:04:37;;;;;;;7.28;2.00;;;;;;;-145.71;100.00;60690.53;5036126;28;20084;-79
2021/05/06 10:07:25;;;;;;;9.52;2.60;;;;;;;-145.71;100.00;60690.53;5036971;28;20022;-78
2021/05/06 10:10:24;;;;;;;7.07;2.38;;;;;;;-145.71;100.00;60690.53;5035010;28;20033;-79
2021/05/06 10:12:50;;;;;;;9.57;2.17;;;;;;;-145.71;100.00;60690.53;5033283;28;20045;-78
2021/05/06 10:15:18;;;;;;;11.82;2.75;;;;;;;-145.71;100.00;60690.53;5036007;28;20500;-79
2021/05/06 10:17:44;;;;;;;10.60;2.83;;;;;;;-145.71;100.00;60690.53;5016011;28;20100;-79
2021/05/06 10:20:10;;;;;;;13.63;3.35;;;;;;;-145.71;100.00;60690.53;5033460;28;20076;-80
2021/05/06 10:22:39;;;;;;;11.75;3.08;;;;;;;-145.71;100.00;60690.53;5036023;28;20029;-78
2021/05/06 10:25:07;;;;;;;10.77;3.15;;;;;;;-145.71;100.00;60690.53;5034459;28;20029;-79
2021/05/06 10:27:33;;;;;;;16.10;3.05;;;;;;;-145.71;100.00;60690.53;5033694;28;20526;-79
2021/05/06 10:30:01;;;;;;;12.02;3.20;;;;;;;-145.71;100.00;60690.53;5017454;28;20047;-79
2021/05/06 10:32:28;;;;;;;20.42;3.28;;;;;;;-145.71;100.00;60690.53;5018228;28;20026;-79
2021/05/06 10:35:08;;;;;;;10.10;2.65;;;;;;;-145.71;100.00;60690.53;5033070;28;20033;-79
2021/05/06 10:37:36;;;;;;;18.10;3.33;;;;;;;-145.71;100.00;60690.53;5031904;28;20446;-79
2021/05/06 10:40:06;;;;;;;16.50;4.15;;;;;;;-145.71;100.00;60690.53;5035814;28;20029;-79
2021/05/06 10:42:43;;;;;;;;;;;;;;;;;;;;;
2021/05/06 10:50:23;;;;;;;16.58;2.80;;;;;;;-145.71;100.00;60690.53;4953755;23;20392;-75
2021/05/06 10:52:55;;;;;;;11.82;2.90;;;;;;;-145.71;100.00;60690.53;5028466;28;20036;-74
2021/05/06 10:55:39;;;;;;;11.93;3.42;;;;;;;-145.71;100.00;60690.53;5020458;28;20540;-74
2021/05/06 10:58:26;;;;;;;8.68;2.95;;;;;;;-145.71;100.00;60690.53;5009569;28;20042;-74
2021/05/06 11:01:09;;;;;;;7.85;3.10;;;;;;;-145.71;100.00;60690.53;5027686;28;20148;-74
2021/05/06 11:03:36;;;;;;;18.75;4.95;;;;;;;-145.71;100.00;60690.53;5028115;28;20033;-73
2021/05/06 11:06:02;;;;;;;16.45;3.70;;;;;;;-145.71;100.00;60690.53;5010016;28;20037;-74
2021/05/06 11:08:29;;;;;;;13.70;2.97;;;;;;;-145.71;100.00;60690.53;5025909;28;20037;-74
2021/05/06 11:11:00;;;;;;;14.63;3.17;;;;;;;-145.71;100.00;60690.53;5009545;28;20095;-74
2021/05/06 11:13:28;;;;;;;13.57;3.05;;;;;;;-145.71;100.00;60690.53;4992009;28;20092;-75
2021/05/06 11:16:17;;;;;;;17.67;4.75;;;;;;;-145.71;100.00;60690.53;5008206;28;20058;-74
2021/05/06 11:18:49;;;;;;;25.65;6.13;;;;;;;-145.71;100.00;60690.53;5008216;28;20093;-75
2021/05/06 11:21:33;;;;;;;22.45;4.90;;;;;;;-145.71;100.00;60690.53;5022126;28;20389;-74
2021/05/06 11:24:12;;;;;;;17.25;4.05;;;;;;;-145.71;100.00;60690.53;5010028;28;20427;-75
2021/05/06 11:26:59;;;;;;;18.90;5.38;;;;;;;-145.71;100.00;60690.53;5028780;28;20079;-75
2021/05/06 11:29:29;;;;;;;16.30;3.47;;;;;;;-145.71;100.00;60690.53;5013934;28;20039;-75
2021/05/06 11:31:55;;;;;;;15.43;3.63;;;;;;;-145.71;100.00;60690.53;5013674;28;20033;-74
2021/05/06 11:34:31;;;;;;;25.48;4.65;;;;;;;-145.71;100.00;60690.53;5013802;28;20028;-75
2021/05/06 11:37:14;;;;;;;18.58;4.25;;;;;;;-145.71;100.00;60690.53;5031935;28;20037;-74
2021/05/06 11:39:56;;;;;;;14.05;3.72;;;;;;;-145.71;100.00;60690.53;5031873;28;20037;-74
2021/05/06 11:42:22;;;;;;;;;;;;;;;-145.71;100.00;60690.53;5031898;28;20558;-74
2021/05/06 11:45:12;;;;;;;23.05;4.68;;;;;;;-145.71;100.00;60690.53;5031530;28;19917;-75
2021/05/06 11:47:41;;;;;;;20.02;4.97;;;;;;;-145.71;100.00;60690.53;5030169;28;20134;-75
2021/05/06 11:50:24;;;;;;;15.15;4.05;;;;;;;-145.71;100.00;60690.53;5007766;28;20038;-75
2021/05/06 11:52:50;;;;;;;17.85;3.70;;;;;;;-145.71;100.00;60690.53;4993915;28;20036;-74
2021/05/06 11:55:32;;;;;;;18.30;3.75;;;;;;;-145.71;100.00;60690.53;5014628;28;20034;-74
2021/05/06 11:57:57;;;;;;;;;;;;;;;-145.71;100.00;60690.53;4994043;28;20041;-75
2021/05/06 12:00:28;;;;;;;54.88;4.07;;;;;;;-145.71;100.00;60690.53;4993704;28;20392;-76
2021/05/06 12:03:08;;;;;;;24.13;3.63;;;;;;;-145.71;100.00;60690.53;4982420;28;20563;-74
2021/05/06 12:05:55;;;;;;;14.50;3.65;;;;;;;-145.71;100.00;60690.53;5013073;28;20400;-75
2021/05/06 12:08:24;;;;;;;25.98;10.50;;;;;;;-145.71;100.00;60690.53;5017580;28;20386;-74
2021/05/06 12:10:53;;;;;;;20.08;7.68;;;;;;;-145.71;100.00;60690.53;5001743;28;20446;-74
2021/05/06 12:13:31;;;;;;;28.73;11.45;;;;;;;-145.71;100.00;60690.53;5008683;28;20052;-75
2021/05/06 12:16:20;;;;;;;30.73;15.70;;;;;;;-145.71;100.00;60690.53;4991109;28;20448;-75
2021/05/06 12:19:02;;;;;;;21.85;7.25;;;;;;;-145.71;100.00;60690.53;5006119;28;20429;-74
2021/05/06 12:21:48;;;;;;;22.15;7.95;;;;;;;-145.71;100.00;60690.53;5008918;28;20034;-74
2021/05/06 12:24:36;;;;;;;28.90;11.65;;;;;;;-145.71;100.00;60690.53;4998334;28;20022;-74
2021/05/06 12:27:21;;;;;;;17.20;4.03;;;;;;;-145.71;100.00;60690.53;5007379;28;20033;-74
2021/05/06 12:29:47;;;;;;;19.65;4.68;;;;;;;-145.71;100.00;60690.53;5002208;28;20038;-75
2021/05/06 12:32:21;;;;;;;15.75;3.05;;;;;;;-145.71;100.00;60690.53;4992806;28;20199;-76
2021/05/06 12:34:47;;;;;;;15.25;3.70;;;;;;;-145.71;100.00;60690.53;4995811;28;20030;-75
2021/05/06 12:37:13;;;;;;;17.33;3.97;;;;;;;-145.71;100.00;60690.53;5005318;28;20030;-74
2021/05/06 12:39:42;;;;;;;14.18;3.42;;;;;;;-145.71;100.00;60690.53;5010128;28;20026;-75
2021/05/06 12:42:07;;;;;;;15.07;3.58;;;;;;;-145.71;100.00;60690.53;5006654;28;20561;-75
2021/05/06 12:44:33;;;;;;;17.92;3.40;;;;;;;-145.71;100.00;60690.53;4998017;28;20030;-76
2021/05/06 12:47:17;;;;;;;6.40;2.38;;;;;;;-145.71;100.00;60690.53;5010364;28;20076;-75
2021/05/06 12:49:43;;;;;;;12.30;3.53;;;;;;;-145.71;100.00;60690.53;4992757;28;20037;-75
2021/05/06 12:52:34;;;;;;;6.85;2.38;;;;;;;-145.71;100.00;60690.53;4995207;28;20042;-75
2021/05/06 12:55:02;;;;;;;10.02;2.33;;;;;;;-145.71;100.00;60690.53;5025441;28;20049;-76
2021/05/06 12:57:28;;;;;;;16.27;3.10;;;;;;;-145.71;100.00;60690.53;5010535;28;20073;-75
2021/05/06 12:59:53;;;;;;;13.60;3.13;;;;;;;-145.71;100.00;60690.53;5010542;28;20835;-75
2021/05/06 13:02:19;;;;;;;24.50;4.10;;;;;;;-145.71;100.00;60690.53;5010133;28;20119;-75
2021/05/06 13:04:46;;;;;;;15.82;3.50;;;;;;;-145.71;100.00;60690.53;5002793;28;20064;-76
2021/05/06 13:07:12;;;;;;;13.65;3.22;;;;;;;-145.71;100.00;60690.53;5011090;28;20417;-74
2021/05/06 13:09:42;;;;;;;19.17;3.60;;;;;;;-145.71;100.00;60690.53;5010148;28;20026;-76
2021/05/06 13:12:23;;;;;;;21.03;3.63;;;;;;;-145.71;100.00;60690.53;4994642;28;20472;-75
2021/05/06 13:14:59;;;;;;;14.93;3.90;;;;;;;-145.71;100.00;60690.53;5029588;28;20068;-75
2021/05/06 13:17:30;;;;;;;12.68;2.90;;;;;;;-145.71;100.00;60690.53;5029603;28;20034;-75
2021/05/06 13:19:57;;;;;;;20.13;4.32;;;;;;;-145.71;100.00;60690.53;5028430;28;20025;-76
2021/05/06 13:22:24;;;;;;;19.70;3.38;;;;;;;-145.71;100.00;60690.53;5026030;28;20389;-75
2021/05/06 13:24:51;;;;;;;19.15;3.53;;;;;;;-145.71;100.00;60690.53;5029727;28;20037;-75
2021/05/06 13:27:26;;;;;;;13.43;3.17;;;;;;;-145.71;100.00;60690.53;5028438;28;20029;-76
2021/05/06 13:29:59;;;;;;;16.98;2.90;;;;;;;-145.71;100.00;60690.53;5014346;28;20096;-75
2021/05/06 13:32:35;;;;;;;13.73;2.80;;;;;;;-145.71;100.00;60690.53;5000478;28;20040;-76
2021/05/06 13:35:03;;;;;;;12.65;3.28;;;;;;;-145.71;100.00;60690.53;5009516;28;20076;-76
2021/05/06 13:37:37;;;;;;;20.05;3.25;;;;;;;-145.71;100.00;60690.53;5021305;28;20129;-76
2021/05/06 13:40:03;;;;;;;16.42;3.90;;;;;;;-145.71;100.00;60690.53;5022695;28;20160;-76
2021/05/06 13:42:28;;;;;;;13.50;3.35;;;;;;;-145.71;100.00;60690.53;5023810;28;20037;-75
2021/05/06 13:44:56;;;;;;;16.25;3.42;;;;;;;-145.71;100.00;60690.53;5029418;28;20029;-76
2021/05/06 13:47:25;;;;;;;17.52;3.33;;;;;;;-145.71;100.00;60690.53;5029206;28;20030;-75
2021/05/06 13:49:51;;;;;;;12.15;3.00;;;;;;;-145.71;100.00;60690.53;5007055;28;20036;-75
2021/05/06 13:52:16;;;;;;;7.28;2.65;;;;;;;-145.71;100.00;60690.53;5009399;28;20121;-77
2021/05/06 13:54:42;;;;;;;15.60;3.08;;;;;;;-145.71;100.00;60690.53;5008869;28;20033;-77
2021/05/06 13:57:08;;;;;;;11.02;3.22;;;;;;;-145.71;100.00;60690.53;5009200;28;20042;-76
2021/05/06 13:59:33;;;;;;;11.35;2.90;;;;;;;-145.71;100.00;60690.53;5009418;28;20062;-76
2021/05/06 14:01:59;;;;;;;12.50;3.88;;;;;;;-145.71;100.00;60690.53;5009082;28;20444;-76
2021/05/06 14:04:24;;;;;;;12.18;2.65;;;;;;;-145.71;100.00;60690.53;5009306;28;20034;-76
2021/05/06 14:06:51;;;;;;;17.67;3.40;;;;;;;-145.71;100.00;60690.53;5009260;28;20040;-76
2021/05/06 14:09:18;;;;;;;16.80;4.57;;;;;;;-145.71;100.00;60690.53;5010112;28;20037;-76
2021/05/06 14:11:44;;;;;;;17.10;3.30;;;;;;;-145.71;100.00;60690.53;5011786;28;20069;-76
2021/05/06 14:14:13;;;;;;;18.70;3.85;;;;;;;-145.71;100.00;60690.53;5008925;28;20025;-76
2021/05/06 14:16:39;;;;;;;13.35;3.40;;;;;;;-145.71;100.00;60690.53;5008982;28;20473;-75
2021/05/06 14:19:07;;;;;;;13.40;3.40;;;;;;;-145.71;100.00;60690.53;5008724;28;20034;-75
2021/05/06 14:21:38;;;;;;;13.90;3.13;;;;;;;-145.71;100.00;60690.53;5000912;28;20401;-75
2021/05/06 14:24:04;;;;;;;11.77;3.53;;;;;;;-145.71;100.00;60690.53;5029052;28;20034;-75
2021/05/06 14:26:30;;;;;;;10.77;3.10;;;;;;;-145.71;100.00;60690.53;5028287;28;20061;-75
2021/05/06 14:28:55;;;;;;;15.43;2.80;;;;;;;-145.71;100.00;60690.53;5010753;28;20067;-75
2021/05/06 14:31:21;;;;;;;11.00;2.78;;;;;;;-145.71;100.00;60690.53;5026386;28;20738;-75
2021/05/06 14:33:46;;;;;;;13.30;2.45;;;;;;;-145.71;100.00;60690.53;5007264;28;20041;-75
2021/05/06 14:36:12;;;;;;;12.52;3.08;;;;;;;-145.71;100.00;60690.53;5008781;28;20101;-75
2021/05/06 14:38:39;;;;;;;13.00;2.50;;;;;;;-145.71;100.00;60690.53;5008695;28;20405;-75
2021/05/06 14:41:06;;;;;;;9.45;2.97;;;;;;;-145.71;100.00;60690.53;5008613;28;20426;-75